Time;durP1;ratioP1;P1;durP2;ratioP2;P2;SDS_P1;SDS_P2;PMS_P1;PMS_P2;Temp;Humidity;BMP_temperature;BMP_pressure;BME280_temperature;BME280_humidity;BME280_pressure;Samples;Min_cycle;Max_cycle;Signal;HPM_P1;HPM_P2
2021/05/12 00:00:16;;;;;;;48.40;44.17;;;;;;;;;;4966049;28;20461;-89
2021/05/12 00:02:44;;;;;;;53.37;48.30;;;;;;;;;;4982624;28;20854;-88
2021/05/12 00:05:11;;;;;;;41.90;38.27;;;;;;;;;;4987296;28;20443;-88
2021/05/12 00:07:40;;;;;;;32.53;30.13;;;;;;;;;;4987690;28;20421;-89
2021/05/12 00:10:10;;;;;;;38.70;35.40;;;;;;;;;;4985634;28;20442;-89
2021/05/12 00:12:37;;;;;;;39.13;35.87;;;;;;;;;;4984492;28;20443;-88
2021/05/12 00:15:07;;;;;;;41.67;38.07;;;;;;;;;;4988394;28;20469;-88
2021/05/12 00:17:36;;;;;;;41.00;37.67;;;;;;;;;;4993502;28;20437;-88
2021/05/12 00:20:05;;;;;;;39.57;36.37;;;;;;;;;;4983777;28;20446;-88
2021/05/12 00:22:37;;;;;;;37.80;34.63;;;;;;;;;;4986388;28;20448;-87
2021/05/12 00:25:05;;;;;;;41.00;37.57;;;;;;;;;;4985464;28;20517;-87
2021/05/12 00:27:32;;;;;;;45.97;41.40;;;;;;;;;;4981595;28;20417;-87
2021/05/12 00:29:58;;;;;;;44.60;40.40;;;;;;;;;;4980720;28;20431;-87
2021/05/12 00:32:25;;;;;;;47.90;43.30;;;;;;;;;;4982639;28;20520;-87
2021/05/12 00:35:00;;;;;;;52.97;47.33;;;;;;;;;;4981490;28;20450;-88
2021/05/12 00:37:27;;;;;;;51.97;46.57;;;;;;;;;;4981212;28;20430;-88
2021/05/12 00:39:56;;;;;;;52.47;47.17;;;;;;;;;;4963367;28;20987;-87
2021/05/12 00:42:27;;;;;;;51.20;46.30;;;;;;;;;;4981971;28;20467;-88
2021/05/12 00:44:54;;;;;;;49.93;45.30;;;;;;;;;;4980469;28;20509;-88
2021/05/12 00:47:25;;;;;;;50.47;45.33;;;;;;;;;;4981222;28;20447;-90
2021/05/12 00:49:53;;;;;;;51.57;46.47;;;;;;;;;;4983000;28;20428;-88
2021/05/12 00:52:21;;;;;;;50.33;45.43;;;;;;;;;;4966670;28;20432;-88
2021/05/12 00:54:50;;;;;;;50.00;44.73;;;;;;;;;;4983087;28;20549;-88
2021/05/12 00:57:17;;;;;;;52.77;47.37;;;;;;;;;;4986709;28;20422;-88
2021/05/12 00:59:45;;;;;;;53.70;48.00;;;;;;;;;;4985020;28;20449;-88
2021/05/12 01:02:12;;;;;;;53.43;47.77;;;;;;;;;;4967864;28;20486;-88
2021/05/12 01:04:39;;;;;;;50.47;45.10;;;;;;;;;;4980760;28;20440;-88
2021/05/12 01:07:06;;;;;;;53.03;47.30;;;;;;;;;;4964379;28;20550;-88
2021/05/12 01:09:34;;;;;;;53.17;47.30;;;;;;;;;;4985335;28;20442;-88
2021/05/12 01:12:02;;;;;;;52.43;47.13;;;;;;;;;;4965853;28;20454;-88
2021/05/12 01:14:29;;;;;;;52.23;47.13;;;;;;;;;;4982657;28;20453;-88
2021/05/12 01:16:59;;;;;;;50.13;45.07;;;;;;;;;;4981962;28;20441;-89
2021/05/12 01:19:27;;;;;;;50.07;45.10;;;;;;;;;;4982506;28;20530;-89
2021/05/12 01:21:55;;;;;;;51.80;46.57;;;;;;;;;;4983579;28;20493;-89
2021/05/12 01:24:28;;;;;;;53.17;47.90;;;;;;;;;;4984471;28;20464;-89
2021/05/12 01:26:57;;;;;;;51.70;46.30;;;;;;;;;;4986142;28;20422;-88
2021/05/12 01:29:24;;;;;;;49.00;44.30;;;;;;;;;;4982857;28;20929;-89
2021/05/12 01:31:53;;;;;;;52.13;46.97;;;;;;;;;;4985973;28;20429;-88
2021/05/12 01:34:24;;;;;;;54.47;48.70;;;;;;;;;;4983465;28;20427;-91
2021/05/12 01:36:52;;;;;;;51.03;45.80;;;;;;;;;;4983425;28;20435;-91
2021/05/12 01:39:20;;;;;;;55.47;47.03;;;;;;;;;;4983111;28;20453;-90
2021/05/12 01:41:49;;;;;;;47.70;42.70;;;;;;;;;;4988350;28;20491;-91
2021/05/12 01:44:16;;;;;;;45.57;40.90;;;;;;;;;;4986759;28;20451;-91
2021/05/12 01:46:49;;;;;;;48.23;43.10;;;;;;;;;;4994941;28;20424;-90
2021/05/12 01:49:18;;;;;;;46.23;41.70;;;;;;;;;;4998021;28;20434;-89
2021/05/12 01:51:54;;;;;;;48.33;43.27;;;;;;;;;;5037420;22;20561;-89
2021/05/12 01:54:22;;;;;;;45.03;40.43;;;;;;;;;;5055665;28;20422;-89
2021/05/12 01:56:50;;;;;;;45.90;41.10;;;;;;;;;;5050743;28;20442;-89
2021/05/12 01:59:21;;;;;;;47.43;42.43;;;;;;;;;;5136025;23;20429;-90
2021/05/12 02:01:55;;;;;;;45.97;40.90;;;;;;;;;;5167623;22;20593;-88
2021/05/12 02:04:23;;;;;;;48.50;43.60;;;;;;;;;;5049113;28;20475;-90
2021/05/12 02:06:58;;;;;;;47.33;42.40;;;;;;;;;;5105176;22;20457;-89
2021/05/12 02:09:29;;;;;;;46.47;41.63;;;;;;;;;;5052116;28;20414;-91
2021/05/12 02:11:58;;;;;;;48.00;43.10;;;;;;;;;;5040414;28;20440;-89
2021/05/12 02:14:26;;;;;;;49.30;42.70;;;;;;;;;;5046347;28;20505;-90
2021/05/12 02:16:53;;;;;;;46.43;41.60;;;;;;;;;;5042526;28;20439;-90
2021/05/12 02:19:25;;;;;;;53.67;46.07;;;;;;;;;;5044387;28;20478;-90
2021/05/12 02:21:52;;;;;;;48.13;43.13;;;;;;;;;;5046038;28;20483;-90
2021/05/12 02:24:20;;;;;;;49.20;43.57;;;;;;;;;;5063258;28;20409;-91
2021/05/12 02:26:49;;;;;;;47.63;42.80;;;;;;;;;;5063704;28;20442;-90
2021/05/12 02:29:16;;;;;;;46.30;41.60;;;;;;;;;;5064472;28;20892;-91
2021/05/12 02:31:43;;;;;;;46.83;41.93;;;;;;;;;;5043792;28;20451;-90
2021/05/12 02:34:12;;;;;;;48.50;43.47;;;;;;;;;;5045025;28;20794;-90
2021/05/12 02:36:39;;;;;;;49.57;43.97;;;;;;;;;;5236423;22;20552;-90
2021/05/12 02:39:08;;;;;;;50.80;45.33;;;;;;;;;;5023728;28;20460;-90
2021/05/12 02:41:36;;;;;;;49.73;42.80;;;;;;;;;;5041430;28;20503;-90
2021/05/12 02:44:05;;;;;;;47.07;42.27;;;;;;;;;;5025565;28;20456;-90
2021/05/12 02:46:33;;;;;;;44.80;40.10;;;;;;;;;;5041640;28;20455;-90
2021/05/12 02:49:00;;;;;;;47.57;42.40;;;;;;;;;;5041859;28;20436;-90
2021/05/12 02:51:27;;;;;;;50.70;45.13;;;;;;;;;;5040003;28;20454;-90
2021/05/12 02:53:54;;;;;;;50.00;41.40;;;;;;;;;;5041909;28;20456;-91
2021/05/12 02:56:21;;;;;;;49.10;43.90;;;;;;;;;;5041045;28;20488;-90
2021/05/12 02:58:48;;;;;;;47.83;42.73;;;;;;;;;;5039866;28;20424;-90
2021/05/12 03:01:16;;;;;;;47.73;42.73;;;;;;;;;;5040840;28;20475;-91
2021/05/12 03:03:43;;;;;;;48.00;42.90;;;;;;;;;;5045637;28;20471;-90
2021/05/12 03:06:11;;;;;;;51.80;46.20;;;;;;;;;;5049474;28;20432;-91
2021/05/12 03:08:38;;;;;;;47.30;42.50;;;;;;;;;;5046465;28;20420;-91
2021/05/12 03:11:08;;;;;;;48.60;43.50;;;;;;;;;;5044194;28;20451;-91
2021/05/12 03:13:35;;;;;;;50.93;45.83;;;;;;;;;;5025322;28;20443;-91
2021/05/12 03:16:03;;;;;;;48.83;43.70;;;;;;;;;;5025705;28;20447;-91
2021/05/12 03:18:30;;;;;;;52.47;47.27;;;;;;;;;;5040100;28;20449;-91
2021/05/12 03:21:00;;;;;;;47.27;42.27;;;;;;;;;;5039176;28;20783;-91
2021/05/12 03:23:27;;;;;;;46.43;41.80;;;;;;;;;;5053352;28;20561;-91
2021/05/12 03:25:54;;;;;;;49.23;44.20;;;;;;;;;;5059228;28;20548;-90
2021/05/12 03:28:21;;;;;;;47.60;42.57;;;;;;;;;;5059644;28;20420;-90
2021/05/12 03:30:48;;;;;;;45.87;41.47;;;;;;;;;;5058804;28;20418;-91
2021/05/12 03:33:15;;;;;;;46.90;42.50;;;;;;;;;;5059505;28;20447;-91
2021/05/12 03:35:45;;;;;;;45.63;41.30;;;;;;;;;;5059765;28;20471;-91
2021/05/12 03:38:13;;;;;;;47.67;42.77;;;;;;;;;;5058959;28;20489;-90
2021/05/12 03:40:41;;;;;;;48.50;43.77;;;;;;;;;;5059077;28;20435;-91
2021/05/12 03:43:08;;;;;;;44.70;40.30;;;;;;;;;;5059423;28;20449;-91
2021/05/12 03:45:35;;;;;;;44.37;39.83;;;;;;;;;;5058555;28;20802;-90
2021/05/12 03:48:02;;;;;;;46.87;42.37;;;;;;;;;;5058643;28;20439;-90
2021/05/12 03:50:29;;;;;;;43.77;39.50;;;;;;;;;;5058326;28;20980;-91
2021/05/12 03:52:58;;;;;;;45.07;40.73;;;;;;;;;;5057628;28;20447;-90
2021/05/12 03:55:25;;;;;;;45.80;41.40;;;;;;;;;;5057066;28;20475;-91
2021/05/12 03:57:52;;;;;;;48.27;43.67;;;;;;;;;;5057549;28;20451;-91
2021/05/12 04:00:20;;;;;;;43.23;38.63;;;;;;;;;;5057489;28;20927;-91
2021/05/12 04:02:47;;;;;;;50.03;45.03;;;;;;;;;;5039633;28;20453;-91
2021/05/12 04:05:15;;;;;;;48.40;43.60;;;;;;;;;;5057135;28;20434;-91
2021/05/12 04:07:42;;;;;;;47.73;43.13;;;;;;;;;;5058918;28;20417;-91
2021/05/12 04:10:11;;;;;;;46.70;41.97;;;;;;;;;;5060497;28;20474;-90
2021/05/12 04:12:38;;;;;;;48.07;43.20;;;;;;;;;;5060946;28;20475;-90
2021/05/12 04:15:08;;;;;;;48.70;43.80;;;;;;;;;;5062865;28;20440;-91
2021/05/12 04:17:35;;;;;;;47.70;43.07;;;;;;;;;;5061424;28;20443;-90
2021/05/12 04:20:01;;;;;;;43.77;39.43;;;;;;;;;;5056685;28;20446;-90
2021/05/12 04:22:29;;;;;;;47.03;42.40;;;;;;;;;;5059260;28;20494;-90
2021/05/12 04:24:55;;;;;;;47.17;42.47;;;;;;;;;;5059506;28;20459;-89
2021/05/12 04:27:23;;;;;;;45.00;40.77;;;;;;;;;;5062092;28;20493;-89
2021/05/12 04:29:51;;;;;;;43.90;39.70;;;;;;;;;;5060725;28;20442;-91
2021/05/12 04:32:18;;;;;;;45.23;41.17;;;;;;;;;;5056496;28;20443;-91
2021/05/12 04:34:46;;;;;;;47.63;42.63;;;;;;;;;;5056951;28;20449;-91
2021/05/12 04:37:13;;;;;;;41.90;38.10;;;;;;;;;;5034980;28;20480;-89
2021/05/12 04:39:40;;;;;;;45.20;40.70;;;;;;;;;;5036161;28;20455;-88
2021/05/12 04:42:07;;;;;;;44.67;40.50;;;;;;;;;;5036017;28;20488;-90
2021/05/12 04:44:35;;;;;;;45.67;41.23;;;;;;;;;;5035728;28;20415;-91
2021/05/12 04:47:02;;;;;;;47.07;42.43;;;;;;;;;;5035631;28;20915;-91
2021/05/12 04:49:29;;;;;;;45.03;41.00;;;;;;;;;;5036419;28;20460;-88
2021/05/12 04:51:56;;;;;;;43.93;40.00;;;;;;;;;;5035707;28;20496;-88
2021/05/12 04:54:23;;;;;;;46.00;41.60;;;;;;;;;;5035640;28;20939;-88
2021/05/12 04:56:49;;;;;;;43.53;38.93;;;;;;;;;;5035502;28;20435;-88
2021/05/12 04:59:16;;;;;;;43.13;39.03;;;;;;;;;;5035314;28;20468;-87
2021/05/12 05:01:45;;;;;;;42.73;38.70;;;;;;;;;;5035222;28;20471;-87
2021/05/12 05:04:15;;;;;;;43.33;39.13;;;;;;;;;;5034841;28;20426;-87
2021/05/12 05:06:43;;;;;;;43.07;39.30;;;;;;;;;;5036082;28;20440;-87
2021/05/12 05:09:10;;;;;;;42.53;38.50;;;;;;;;;;5036186;28;20867;-87
2021/05/12 05:11:36;;;;;;;43.30;39.40;;;;;;;;;;5036278;28;21003;-87
2021/05/12 05:14:04;;;;;;;43.20;39.10;;;;;;;;;;5036350;28;20433;-87
2021/05/12 05:16:33;;;;;;;45.53;41.27;;;;;;;;;;5036059;28;20818;-87
2021/05/12 05:19:01;;;;;;;45.80;41.53;;;;;;;;;;5035513;28;20444;-87
2021/05/12 05:21:28;;;;;;;44.03;40.13;;;;;;;;;;5035511;28;20780;-86
2021/05/12 05:23:55;;;;;;;43.90;39.97;;;;;;;;;;5034794;28;20467;-86
2021/05/12 05:26:22;;;;;;;43.17;39.07;;;;;;;;;;5034176;28;20799;-86
2021/05/12 05:28:50;;;;;;;47.60;42.83;;;;;;;;;;5034704;28;20432;-85
2021/05/12 05:31:17;;;;;;;41.13;37.40;;;;;;;;;;5034786;28;20452;-86
2021/05/12 05:33:44;;;;;;;44.80;40.70;;;;;;;;;;5035234;28;20437;-85
2021/05/12 05:36:12;;;;;;;44.40;40.20;;;;;;;;;;5035947;28;20446;-86
2021/05/12 05:38:38;;;;;;;42.97;38.67;;;;;;;;;;5054906;28;20443;-87
2021/05/12 05:41:05;;;;;;;43.13;39.13;;;;;;;;;;5054811;28;20406;-87
2021/05/12 05:43:33;;;;;;;41.00;37.50;;;;;;;;;;5054401;28;20450;-86
2021/05/12 05:46:00;;;;;;;37.43;34.07;;;;;;;;;;5039871;28;20538;-85
2021/05/12 05:48:28;;;;;;;43.87;40.03;;;;;;;;;;5059588;28;20945;-80
2021/05/12 05:50:55;;;;;;;43.37;39.47;;;;;;;;;;5057081;28;20424;-85
2021/05/12 05:53:23;;;;;;;42.90;39.10;;;;;;;;;;5054745;28;20446;-83
2021/05/12 05:55:50;;;;;;;43.37;39.23;;;;;;;;;;5056241;28;20766;-86
2021/05/12 05:58:18;;;;;;;39.47;36.07;;;;;;;;;;5061519;28;20455;-85
2021/05/12 06:00:46;;;;;;;33.73;30.80;;;;;;;;;;5060602;28;20413;-86
2021/05/12 06:03:16;;;;;;;42.10;38.10;;;;;;;;;;5043661;28;20489;-85
2021/05/12 06:05:46;;;;;;;38.57;35.20;;;;;;;;;;5068351;28;20439;-85
2021/05/12 06:08:13;;;;;;;41.40;37.77;;;;;;;;;;5060151;28;20445;-85
2021/05/12 06:10:42;;;;;;;40.10;36.80;;;;;;;;;;5059544;28;20883;-86
2021/05/12 06:13:09;;;;;;;42.03;38.27;;;;;;;;;;5059823;28;20434;-86
2021/05/12 06:15:39;;;;;;;40.07;36.47;;;;;;;;;;5058013;28;20432;-86
2021/05/12 06:18:06;;;;;;;42.23;38.57;;;;;;;;;;5057675;28;20435;-86
2021/05/12 06:20:33;;;;;;;43.10;39.20;;;;;;;;;;5057913;28;20440;-85
2021/05/12 06:23:04;;;;;;;40.13;36.93;;;;;;;;;;5060021;28;20473;-84
2021/05/12 06:25:30;;;;;;;39.50;36.00;;;;;;;;;;5058996;28;20417;-84
2021/05/12 06:27:58;;;;;;;39.47;36.17;;;;;;;;;;5059359;28;20418;-84
2021/05/12 06:30:26;;;;;;;41.27;37.87;;;;;;;;;;5060499;28;20434;-93
2021/05/12 06:32:54;;;;;;;42.37;38.67;;;;;;;;;;5067778;28;20421;-89
2021/05/12 06:35:22;;;;;;;39.00;35.80;;;;;;;;;;5065143;28;20500;-89
2021/05/12 06:37:49;;;;;;;40.93;37.13;;;;;;;;;;5064508;28;20478;-89
2021/05/12 06:40:16;;;;;;;40.33;36.83;;;;;;;;;;5064983;28;20513;-89
2021/05/12 06:42:43;;;;;;;39.33;36.13;;;;;;;;;;5064065;28;20486;-88
2021/05/12 06:45:13;;;;;;;40.50;37.00;;;;;;;;;;5066166;28;20485;-89
2021/05/12 06:47:42;;;;;;;40.67;37.00;;;;;;;;;;5063127;28;20802;-89
2021/05/12 06:50:10;;;;;;;38.73;35.67;;;;;;;;;;5060899;28;20427;-87
2021/05/12 06:52:37;;;;;;;40.43;36.83;;;;;;;;;;5061643;28;20438;-87
2021/05/12 06:55:04;;;;;;;37.50;34.30;;;;;;;;;;5043633;28;20442;-88
2021/05/12 06:57:31;;;;;;;38.73;35.33;;;;;;;;;;5061514;28;20397;-87
2021/05/12 06:59:58;;;;;;;38.60;35.30;;;;;;;;;;5060376;28;20446;-87
2021/05/12 07:02:25;;;;;;;35.20;32.10;;;;;;;;;;5058459;28;20475;-87
2021/05/12 07:04:52;;;;;;;34.77;31.90;;;;;;;;;;5046034;28;20469;-88
2021/05/12 07:07:19;;;;;;;35.70;32.90;;;;;;;;;;5064793;28;20435;-87
2021/05/12 07:09:46;;;;;;;37.00;34.10;;;;;;;;;;5064899;28;20442;-87
2021/05/12 07:12:13;;;;;;;35.57;32.67;;;;;;;;;;5070213;28;20450;-89
2021/05/12 07:14:40;;;;;;;32.37;29.83;;;;;;;;;;5064818;28;20928;-88
2021/05/12 07:17:07;;;;;;;32.70;30.30;;;;;;;;;;5058641;28;20451;-88
2021/05/12 07:19:35;;;;;;;32.37;30.03;;;;;;;;;;5065502;28;20449;-89
2021/05/12 07:22:02;;;;;;;33.90;31.13;;;;;;;;;;5059204;28;20465;-87
2021/05/12 07:24:28;;;;;;;31.90;29.30;;;;;;;;;;5066277;28;20791;-88
2021/05/12 07:26:55;;;;;;;34.40;31.20;;;;;;;;;;5064390;28;20417;-88
2021/05/12 07:29:22;;;;;;;32.53;30.00;;;;;;;;;;5046274;28;20492;-88
2021/05/12 07:31:49;;;;;;;31.23;28.93;;;;;;;;;;5062424;28;20502;-88
2021/05/12 07:34:16;;;;;;;32.97;30.37;;;;;;;;;;5064326;28;20442;-88
2021/05/12 07:36:44;;;;;;;33.20;30.60;;;;;;;;;;5063631;28;20462;-88
2021/05/12 07:39:11;;;;;;;29.80;27.40;;;;;;;;;;5063256;28;20411;-88
2021/05/12 07:41:38;;;;;;;31.43;28.83;;;;;;;;;;5064472;28;20482;-88
2021/05/12 07:44:07;;;;;;;34.13;31.37;;;;;;;;;;5065652;28;20438;-88
2021/05/12 07:46:34;;;;;;;31.10;28.57;;;;;;;;;;5064502;28;20434;-89
2021/05/12 07:49:01;;;;;;;32.93;30.43;;;;;;;;;;5064852;28;20439;-88
2021/05/12 07:51:28;;;;;;;31.50;29.00;;;;;;;;;;5065179;28;20408;-88
2021/05/12 07:53:56;;;;;;;31.83;29.30;;;;;;;;;;5063264;28;20458;-88
2021/05/12 07:56:23;;;;;;;32.80;30.13;;;;;;;;;;5066053;28;20456;-88
2021/05/12 07:58:51;;;;;;;31.07;28.77;;;;;;;;;;5063931;28;20520;-88
2021/05/12 08:01:20;;;;;;;29.03;26.83;;;;;;;;;;5063748;28;20455;-88
2021/05/12 08:03:48;;;;;;;29.90;27.63;;;;;;;;;;5070213;28;20446;-89
2021/05/12 08:06:14;;;;;;;29.87;27.30;;;;;;;;;;5070958;28;20500;-86
2021/05/12 08:08:41;;;;;;;30.70;28.37;;;;;;;;;;5068524;28;20438;-86
2021/05/12 08:11:09;;;;;;;28.90;26.80;;;;;;;;;;5066580;28;20462;-86
2021/05/12 08:13:37;;;;;;;31.20;28.80;;;;;;;;;;5053904;28;20453;-87
2021/05/12 08:16:06;;;;;;;30.17;27.80;;;;;;;;;;5068159;28;20486;-88
2021/05/12 08:18:33;;;;;;;29.33;27.13;;;;;;;;;;5068891;28;20410;-88
2021/05/12 08:21:00;;;;;;;29.40;27.10;;;;;;;;;;5064105;28;20795;-87
2021/05/12 08:23:29;;;;;;;29.17;27.17;;;;;;;;;;5064608;28;20496;-87
2021/05/12 08:26:01;;;;;;;29.57;27.13;;;;;;;;;;5049927;28;20439;-88
2021/05/12 08:28:29;;;;;;;28.33;26.03;;;;;;;;;;5073287;28;20458;-87
2021/05/12 08:30:57;;;;;;;28.17;26.13;;;;;;;;;;5067580;28;20431;-88
2021/05/12 08:33:24;;;;;;;27.00;25.10;;;;;;;;;;5064455;28;20435;-87
2021/05/12 08:35:53;;;;;;;25.13;23.53;;;;;;;;;;5045251;28;20410;-88
2021/05/12 08:38:25;;;;;;;27.03;24.73;;;;;;;;;;5064299;28;20471;-87
2021/05/12 08:40:54;;;;;;;28.00;25.90;;;;;;;;;;5071372;28;20438;-88
2021/05/12 08:43:22;;;;;;;27.67;25.77;;;;;;;;;;5056270;28;20499;-87
2021/05/12 08:45:50;;;;;;;26.80;24.90;;;;;;;;;;5070953;28;20417;-87
2021/05/12 08:48:18;;;;;;;27.43;25.53;;;;;;;;;;5063307;28;20446;-87
2021/05/12 08:50:46;;;;;;;29.13;26.93;;;;;;;;;;5064298;28;20989;-82
2021/05/12 08:53:13;;;;;;;26.97;24.73;;;;;;;;;;5063124;28;20913;-86
2021/05/12 08:55:40;;;;;;;27.97;25.67;;;;;;;;;;5059314;28;20471;-87
2021/05/12 08:58:07;;;;;;;25.20;23.60;;;;;;;;;;5058898;28;20800;-88
2021/05/12 09:00:34;;;;;;;28.23;26.13;;;;;;;;;;5058458;28;20456;-86
2021/05/12 09:03:02;;;;;;;26.43;24.40;;;;;;;;;;5066600;28;20868;-87
2021/05/12 09:05:32;;;;;;;27.70;25.70;;;;;;;;;;5063229;28;20431;-85
2021/05/12 09:08:01;;;;;;;26.80;24.90;;;;;;;;;;5062939;28;20457;-87
2021/05/12 09:10:28;;;;;;;25.63;24.03;;;;;;;;;;5058957;28;20947;-85
2021/05/12 09:12:56;;;;;;;27.60;25.40;;;;;;;;;;5061866;28;20566;-84
2021/05/12 09:15:24;;;;;;;26.70;24.80;;;;;;;;;;5061564;28;20406;-84
2021/05/12 09:17:53;;;;;;;26.37;24.30;;;;;;;;;;5060272;28;20486;-84
2021/05/12 09:20:28;;;;;;;27.70;25.30;;;;;;;;;;5060497;28;20447;-84
2021/05/12 09:23:09;;;;;;;24.97;23.23;;;;;;;;;;5058830;28;20555;-84
2021/05/12 09:25:37;;;;;;;24.87;23.10;;;;;;;;;;5061382;28;20417;-84
2021/05/12 09:28:11;;;;;;;24.97;23.17;;;;;;;;;;5060030;28;20433;-84
2021/05/12 09:30:38;;;;;;;25.30;23.13;;;;;;;;;;5068375;28;20417;-83
2021/05/12 09:33:06;;;;;;;25.97;23.90;;;;;;;;;;5064849;28;20407;-85
2021/05/12 09:35:40;;;;;;;24.37;22.77;;;;;;;;;;5044290;28;20440;-85
2021/05/12 09:38:18;;;;;;;24.87;23.27;;;;;;;;;;5059612;28;20811;-84
2021/05/12 09:40:46;;;;;;;24.60;22.63;;;;;;;;;;5059971;28;20409;-84
2021/05/12 09:43:15;;;;;;;24.67;23.07;;;;;;;;;;5062324;28;20487;-85
2021/05/12 09:45:43;;;;;;;26.17;24.37;;;;;;;;;;5067714;28;20417;-85
2021/05/12 09:48:13;;;;;;;24.33;22.63;;;;;;;;;;5066403;28;20444;-87
2021/05/12 09:50:43;;;;;;;25.00;23.30;;;;;;;;;;5069312;28;20448;-84
2021/05/12 09:53:12;;;;;;;23.33;21.70;;;;;;;;;;5070435;28;20450;-84
2021/05/12 09:55:40;;;;;;;24.77;22.67;;;;;;;;;;5072521;28;20439;-84
2021/05/12 09:58:08;;;;;;;25.30;23.30;;;;;;;;;;5065764;28;20462;-85
2021/05/12 10:00:38;;;;;;;23.83;22.13;;;;;;;;;;5067101;28;20437;-82
2021/05/12 10:03:09;;;;;;;25.97;23.77;;;;;;;;;;5071824;28;20495;-90
2021/05/12 10:05:53;;;;;;;25.70;23.23;;;;;;;;;;5063302;28;20474;-85
2021/05/12 10:08:21;;;;;;;24.63;23.00;;;;;;;;;;5066920;28;20434;-85
2021/05/12 10:10:48;;;;;;;26.07;23.97;;;;;;;;;;5067428;28;20433;-83
2021/05/12 10:13:25;;;;;;;25.10;23.03;;;;;;;;;;5065580;28;20424;-84
2021/05/12 10:15:53;;;;;;;25.23;23.50;;;;;;;;;;5064073;28;20453;-85
2021/05/12 10:18:20;;;;;;;24.40;22.70;;;;;;;;;;5066273;28;20500;-85
2021/05/12 10:23:33;;;;;;;25.03;23.33;;;;;;;;;;5056508;28;20502;-85
2021/05/12 10:26:02;;;;;;;26.47;24.37;;;;;;;;;;5054348;28;20843;-85
2021/05/12 10:28:29;;;;;;;24.80;23.10;;;;;;;;;;5062259;28;20434;-85
2021/05/12 10:30:57;;;;;;;26.33;24.47;;;;;;;;;;5059611;28;20573;-85
2021/05/12 10:33:45;;;;;;;25.37;23.57;;;;;;;;;;5065076;28;20446;-85
2021/05/12 10:36:12;;;;;;;26.93;24.90;;;;;;;;;;5062069;28;20424;-84
2021/05/12 10:38:46;;;;;;;26.53;24.50;;;;;;;;;;5062247;28;20475;-85
2021/05/12 10:41:36;;;;;;;26.03;23.50;;;;;;;;;;5040646;28;20471;-83
2021/05/12 10:44:08;;;;;;;26.30;24.27;;;;;;;;;;5054245;28;20436;-87
2021/05/12 10:46:45;;;;;;;26.63;24.80;;;;;;;;;;5052732;28;20469;-85
2021/05/12 10:49:20;;;;;;;26.60;24.70;;;;;;;;;;5054202;28;20431;-86
2021/05/12 10:51:48;;;;;;;26.23;24.33;;;;;;;;;;5054657;28;20417;-87
2021/05/12 10:54:36;;;;;;;26.60;24.50;;;;;;;;;;5054605;28;20789;-88
2021/05/12 10:57:03;;;;;;;25.87;24.10;;;;;;;;;;5056083;28;20455;-91
2021/05/12 10:59:30;;;;;;;25.70;23.80;;;;;;;;;;5056079;28;20904;-95
2021/05/12 11:01:57;;;;;;;24.53;22.70;;;;;;;;;;5058590;28;20478;-96
2021/05/12 11:04:25;;;;;;;27.27;25.37;;;;;;;;;;5056444;28;20438;-89
2021/05/12 11:07:16;;;;;;;25.60;23.90;;;;;;;;;;5056514;28;20408;-85
2021/05/12 11:09:48;;;;;;;24.70;22.73;;;;;;;;;;5056242;28;21012;-83
2021/05/12 11:12:17;;;;;;;25.10;23.40;;;;;;;;;;5066698;28;20450;-84
2021/05/12 11:14:55;;;;;;;25.93;24.03;;;;;;;;;;5074439;28;20495;-84
2021/05/12 11:17:23;;;;;;;26.10;24.20;;;;;;;;;;5076002;28;20381;-84
2021/05/12 11:19:51;;;;;;;25.57;23.80;;;;;;;;;;5068658;28;20436;-84
2021/05/12 11:22:32;;;;;;;26.67;24.30;;;;;;;;;;5063426;28;20600;-84
2021/05/12 11:25:04;;;;;;;27.00;25.00;;;;;;;;;;5063219;28;20465;-84
2021/05/12 11:27:50;;;;;;;26.97;24.80;;;;;;;;;;5060498;28;20426;-84
2021/05/12 11:33:04;;;;;;;27.07;25.07;;;;;;;;;;5062743;28;20447;-84
2021/05/12 11:35:31;;;;;;;26.07;24.20;;;;;;;;;;5062670;28;20794;-84
2021/05/12 11:37:58;;;;;;;26.57;24.87;;;;;;;;;;5062036;28;20815;-85
2021/05/12 11:40:30;;;;;;;25.60;23.97;;;;;;;;;;5064444;28;20406;-82
2021/05/12 11:42:57;;;;;;;26.03;24.40;;;;;;;;;;5072288;28;20490;-84
2021/05/12 11:45:25;;;;;;;26.23;24.27;;;;;;;;;;5071671;28;20415;-84
2021/05/12 11:48:01;;;;;;;25.80;23.90;;;;;;;;;;5063383;28;20418;-84
2021/05/12 11:50:30;;;;;;;26.17;24.33;;;;;;;;;;5065638;28;20451;-84
2021/05/12 11:52:57;;;;;;;25.60;23.90;;;;;;;;;;5064742;28;20417;-84
2021/05/12 11:55:27;;;;;;;24.87;23.13;;;;;;;;;;5064353;28;20443;-84
2021/05/12 11:57:54;;;;;;;52.00;28.77;;;;;;;;;;5063617;28;20443;-84
2021/05/12 12:00:23;;;;;;;27.67;25.13;;;;;;;;;;5051278;28;20535;-83
2021/05/12 12:02:57;;;;;;;25.37;23.27;;;;;;;;;;5065199;28;20979;-84
2021/05/12 12:05:26;;;;;;;28.87;25.30;;;;;;;;;;5064947;28;20426;-85
2021/05/12 12:08:09;;;;;;;25.80;24.00;;;;;;;;;;5063275;28;20426;-84
2021/05/12 12:10:39;;;;;;;26.00;24.30;;;;;;;;;;5066506;28;20409;-84
2021/05/12 12:13:10;;;;;;;25.10;23.50;;;;;;;;;;5065506;28;20421;-85
2021/05/12 12:15:40;;;;;;;25.60;23.90;;;;;;;;;;5065223;28;20440;-83
2021/05/12 12:18:08;;;;;;;25.43;23.67;;;;;;;;;;5060536;28;20934;-84
2021/05/12 12:20:39;;;;;;;25.50;23.70;;;;;;;;;;5057899;28;20410;-84
2021/05/12 12:23:07;;;;;;;25.27;23.57;;;;;;;;;;5056259;28;20474;-91
2021/05/12 12:25:42;;;;;;;28.47;25.43;;;;;;;;;;5060487;28;20425;-84
2021/05/12 12:28:10;;;;;;;26.53;24.70;;;;;;;;;;5073777;28;20512;-86
2021/05/12 12:30:40;;;;;;;27.07;25.23;;;;;;;;;;5066084;28;20387;-86
2021/05/12 12:33:10;;;;;;;27.57;25.47;;;;;;;;;;5053337;28;20414;-85
2021/05/12 12:36:01;;;;;;;25.13;23.60;;;;;;;;;;5056687;28;20438;-86
2021/05/12 12:38:30;;;;;;;26.03;24.23;;;;;;;;;;5047642;28;20966;-89
2021/05/12 12:40:58;;;;;;;25.40;23.80;;;;;;;;;;5045757;28;20423;-84
2021/05/12 12:43:36;;;;;;;26.70;25.00;;;;;;;;;;5046542;28;20481;-84
2021/05/12 12:46:04;;;;;;;26.33;24.43;;;;;;;;;;5045041;28;20414;-84
2021/05/12 12:48:31;;;;;;;24.90;23.30;;;;;;;;;;5043923;28;20414;-85
2021/05/12 12:50:58;;;;;;;24.13;22.53;;;;;;;;;;5027096;28;20469;-84
2021/05/12 12:53:29;;;;;;;25.63;24.00;;;;;;;;;;5041672;28;20426;-84
2021/05/12 12:56:06;;;;;;;25.97;24.17;;;;;;;;;;5042211;28;20436;-84
2021/05/12 12:58:34;;;;;;;25.53;23.90;;;;;;;;;;5043826;28;20399;-85
2021/05/12 13:01:01;;;;;;;24.90;23.30;;;;;;;;;;5045283;28;20455;-85
2021/05/12 13:03:29;;;;;;;26.23;24.43;;;;;;;;;;5042015;28;20457;-84
2021/05/12 13:05:58;;;;;;;25.93;24.17;;;;;;;;;;5039588;28;20440;-85
2021/05/12 13:08:26;;;;;;;26.27;24.47;;;;;;;;;;5046131;28;20436;-85
2021/05/12 13:10:55;;;;;;;25.00;23.30;;;;;;;;;;5043509;28;20452;-84
2021/05/12 13:13:24;;;;;;;26.23;24.37;;;;;;;;;;5031429;28;20987;-84
2021/05/12 13:15:52;;;;;;;27.40;25.50;;;;;;;;;;5039587;28;20818;-89
2021/05/12 13:18:27;;;;;;;26.97;25.07;;;;;;;;;;5044713;28;20460;-85
2021/05/12 13:23:49;;;;;;;25.80;23.93;;;;;;;;;;5048133;28;20459;-85
2021/05/12 13:26:16;;;;;;;27.10;25.13;;;;;;;;;;5044783;28;20433;-84
2021/05/12 13:28:43;;;;;;;28.57;26.13;;;;;;;;;;5040374;28;20817;-84
2021/05/12 13:31:13;;;;;;;27.60;25.70;;;;;;;;;;5038046;28;20402;-84
2021/05/12 13:33:47;;;;;;;27.63;25.33;;;;;;;;;;5036587;28;20494;-84
2021/05/12 13:36:14;;;;;;;26.23;24.17;;;;;;;;;;5036414;28;20445;-83
2021/05/12 13:38:41;;;;;;;27.20;25.20;;;;;;;;;;5056107;28;20474;-84
2021/05/12 13:41:08;;;;;;;26.43;24.47;;;;;;;;;;5062112;28;20421;-84
2021/05/12 13:43:35;;;;;;;27.00;25.00;;;;;;;;;;5047162;28;20483;-85
2021/05/12 13:46:02;;;;;;;25.97;24.27;;;;;;;;;;5047811;28;20411;-83
2021/05/12 13:48:31;;;;;;;26.17;24.30;;;;;;;;;;5052042;28;20447;-86
2021/05/12 13:50:59;;;;;;;27.17;25.17;;;;;;;;;;5065337;28;20422;-85
2021/05/12 13:53:31;;;;;;;28.00;25.90;;;;;;;;;;5063336;28;20422;-86
2021/05/12 13:56:04;;;;;;;27.07;25.17;;;;;;;;;;5054907;28;20490;-86
2021/05/12 13:58:57;;;;;;;27.80;25.60;;;;;;;;;;5055757;28;20454;-86
2021/05/12 14:04:06;;;;;;;26.27;24.47;;;;;;;;;;5055127;28;20450;-85
2021/05/12 14:06:41;;;;;;;27.73;25.50;;;;;;;;;;5059198;28;20858;-82
2021/05/12 14:09:11;;;;;;;25.90;24.37;;;;;;;;;;5059386;28;20784;-84
2021/05/12 14:11:44;;;;;;;25.93;24.23;;;;;;;;;;5055409;28;20421;-84
2021/05/12 14:14:20;;;;;;;25.73;23.90;;;;;;;;;;5054796;28;20891;-91
2021/05/12 14:19:32;;;;;;;26.90;25.10;;;;;;;;;;5055154;28;20416;-84
2021/05/12 14:21:59;;;;;;;26.33;24.83;;;;;;;;;;5055834;28;20458;-83
2021/05/12 14:24:28;;;;;;;25.40;23.90;;;;;;;;;;5067283;28;20442;-84
2021/05/12 14:26:55;;;;;;;24.70;23.20;;;;;;;;;;5077723;28;20450;-84
2021/05/12 14:29:30;;;;;;;24.47;22.80;;;;;;;;;;5078142;28;20506;-84
2021/05/12 14:31:57;;;;;;;24.33;22.70;;;;;;;;;;5071242;28;20493;-84
2021/05/12 14:34:24;;;;;;;25.00;23.30;;;;;;;;;;5054203;28;20970;-85
2021/05/12 14:36:52;;;;;;;25.27;23.63;;;;;;;;;;5053773;28;20457;-84
2021/05/12 14:39:20;;;;;;;25.13;23.50;;;;;;;;;;5054320;28;20426;-89